Time;durP1;ratioP1;P1;durP2;ratioP2;P2;SDS_P1;SDS_P2;PMS_P1;PMS_P2;Temp;Humidity;BMP_temperature;BMP_pressure;BME280_temperature;BME280_humidity;BME280_pressure;Samples;Min_cycle;Max_cycle;Signal;HPM_P1;HPM_P2
2023/01/31 00:02:18;;;;;;;0.95;0.95;;;;;;;;;;5041329;28;20047;-76
2023/01/31 00:04:44;;;;;;;2.60;2.50;;;;;;;;;;5066545;28;20484;-76
2023/01/31 00:07:09;;;;;;;0.50;0.50;;;;;;;;;;5060701;28;20074;-77
2023/01/31 00:09:34;;;;;;;0.05;0.05;;;;;;;;;;5062360;28;20036;-77
2023/01/31 00:12:00;;;;;;;0.70;0.65;;;;;;;;;;5070117;28;20156;-75
2023/01/31 00:14:25;;;;;;;0.10;0.10;;;;;;;;;;5065439;28;20032;-77
2023/01/31 00:16:51;;;;;;;0.10;0.10;;;;;;;;;;5066478;28;20099;-78
2023/01/31 00:19:16;;;;;;;0.10;0.10;;;;;;;;;;5074706;28;20082;-76
2023/01/31 00:21:43;;;;;;;0.35;0.35;;;;;;;;;;5074557;28;20073;-77
2023/01/31 00:24:11;;;;;;;1.38;1.35;;;;;;;;;;5052820;28;20049;-76
2023/01/31 00:26:36;;;;;;;0.20;0.20;;;;;;;;;;5056691;28;20048;-76
2023/01/31 00:29:03;;;;;;;0.10;0.10;;;;;;;;;;5073885;28;20074;-75
2023/01/31 00:31:30;;;;;;;0.22;0.22;;;;;;;;;;5074220;28;20035;-76
2023/01/31 00:33:55;;;;;;;4.57;1.55;;;;;;;;;;5074373;28;20032;-77
2023/01/31 00:36:22;;;;;;;0.20;0.20;;;;;;;;;;5074187;28;20158;-79
2023/01/31 00:38:48;;;;;;;0.75;0.75;;;;;;;;;;5074567;28;20028;-79
2023/01/31 00:41:14;;;;;;;1.08;0.98;;;;;;;;;;5074442;28;20023;-78
2023/01/31 00:43:39;;;;;;;2.53;1.23;;;;;;;;;;5056293;28;20036;-77
2023/01/31 00:46:04;;;;;;;0.25;0.25;;;;;;;;;;5054366;28;20261;-76
2023/01/31 00:48:30;;;;;;;1.48;1.38;;;;;;;;;;5056747;28;20031;-76
2023/01/31 00:50:56;;;;;;;0.50;0.50;;;;;;;;;;5064845;28;20024;-75
2023/01/31 00:53:24;;;;;;;1.85;1.75;;;;;;;;;;5045429;28;20555;-76
2023/01/31 00:55:54;;;;;;;0.38;0.38;;;;;;;;;;5074296;28;20024;-76
2023/01/31 00:58:20;;;;;;;0.15;0.15;;;;;;;;;;5073165;28;20098;-76
2023/01/31 01:00:46;;;;;;;0.45;0.45;;;;;;;;;;5072228;28;20491;-79
2023/01/31 01:03:12;;;;;;;0.45;0.45;;;;;;;;;;5071939;28;20075;-78
2023/01/31 01:05:37;;;;;;;1.88;1.77;;;;;;;;;;5073638;28;20021;-77
2023/01/31 01:08:02;;;;;;;0.47;0.47;;;;;;;;;;5065204;28;20093;-78
2023/01/31 01:10:28;;;;;;;0.75;0.75;;;;;;;;;;5054159;28;20388;-79
2023/01/31 01:12:53;;;;;;;0.10;0.10;;;;;;;;;;5036066;28;20484;-79
2023/01/31 01:15:19;;;;;;;0.80;0.80;;;;;;;;;;5053778;28;20051;-78
2023/01/31 01:17:44;;;;;;;0.38;0.38;;;;;;;;;;5052491;28;20017;-79
2023/01/31 01:20:10;;;;;;;0.45;0.45;;;;;;;;;;5065245;28;20086;-79
2023/01/31 01:22:37;;;;;;;0.40;0.40;;;;;;;;;;5073802;28;20067;-78
2023/01/31 01:25:02;;;;;;;0.10;0.10;;;;;;;;;;5055548;28;20146;-78
2023/01/31 01:27:28;;;;;;;2.33;2.22;;;;;;;;;;5055762;28;20028;-79
2023/01/31 01:29:53;;;;;;;0.50;0.50;;;;;;;;;;5073389;28;20051;-79
2023/01/31 01:32:18;;;;;;;0.10;0.10;;;;;;;;;;5055627;28;20029;-79
2023/01/31 01:34:44;;;;;;;0.17;0.17;;;;;;;;;;5055291;28;20078;-79
2023/01/31 01:37:18;;;;;;;10.05;3.40;;;;;;;;;;5055627;28;20032;-79
2023/01/31 01:39:48;;;;;;;0.93;0.93;;;;;;;;;;5073002;28;20020;-79
2023/01/31 01:42:14;;;;;;;4.93;2.17;;;;;;;;;;5055385;28;20025;-79
2023/01/31 01:44:40;;;;;;;1.73;1.65;;;;;;;;;;5055364;28;20025;-76
2023/01/31 01:47:30;;;;;;;2.15;2.05;;;;;;;;;;5073345;28;20107;-76
2023/01/31 01:50:02;;;;;;;3.08;2.92;;;;;;;;;;5043258;28;20503;-76
2023/01/31 01:52:28;;;;;;;0.10;0.10;;;;;;;;;;5072869;28;20037;-79
2023/01/31 01:55:01;;;;;;;0.47;0.47;;;;;;;;;;5071337;28;20042;-79
2023/01/31 01:57:38;;;;;;;0.13;0.13;;;;;;;;;;5054372;28;20036;-76
2023/01/31 02:00:07;;;;;;;0.10;0.10;;;;;;;;;;5038479;28;20475;-77
2023/01/31 02:02:40;;;;;;;2.25;2.05;;;;;;;;;;5073188;28;20033;-79
2023/01/31 02:05:07;;;;;;;0.10;0.10;;;;;;;;;;5055384;28;20028;-79
2023/01/31 02:07:32;;;;;;;0.10;0.10;;;;;;;;;;5073214;28;20090;-77
2023/01/31 02:10:01;;;;;;;0.20;0.20;;;;;;;;;;5072795;28;20487;-80
2023/01/31 02:12:27;;;;;;;0.25;0.25;;;;;;;;;;5073591;28;20496;-78
2023/01/31 02:14:54;;;;;;;0.73;0.73;;;;;;;;;;5073253;28;20380;-77
2023/01/31 02:17:19;;;;;;;5.35;4.90;;;;;;;;;;5038352;28;20016;-76
2023/01/31 02:20:11;;;;;;;0.22;0.22;;;;;;;;;;5055109;28;20055;-76
2023/01/31 02:22:39;;;;;;;0.17;0.17;;;;;;;;;;5073374;28;20412;-75
2023/01/31 02:25:08;;;;;;;0.10;0.10;;;;;;;;;;5072614;28;20426;-76
2023/01/31 02:27:39;;;;;;;0.10;0.10;;;;;;;;;;5072970;28;20064;-75
2023/01/31 02:30:14;;;;;;;0.22;0.22;;;;;;;;;;5055022;28;20518;-76
2023/01/31 02:32:56;;;;;;;0.10;0.10;;;;;;;;;;5055078;28;20048;-76
2023/01/31 02:35:25;;;;;;;0.10;0.10;;;;;;;;;;5055547;28;20028;-77
2023/01/31 02:37:50;;;;;;;0.10;0.10;;;;;;;;;;5058884;28;20376;-75
2023/01/31 02:40:24;;;;;;;0.10;0.10;;;;;;;;;;5076765;28;20123;-76
2023/01/31 02:42:57;;;;;;;0.10;0.10;;;;;;;;;;5076848;28;20380;-76
2023/01/31 02:45:30;;;;;;;0.08;0.08;;;;;;;;;;5057905;28;20056;-76
2023/01/31 02:48:17;;;;;;;0.10;0.10;;;;;;;;;;5058530;28;20362;-79
2023/01/31 02:50:56;;;;;;;0.13;0.13;;;;;;;;;;5058839;28;20496;-81
2023/01/31 02:53:42;;;;;;;0.10;0.10;;;;;;;;;;5076479;28;20021;-81
2023/01/31 02:56:13;;;;;;;0.15;0.15;;;;;;;;;;5058313;28;20123;-80
2023/01/31 02:58:41;;;;;;;0.10;0.10;;;;;;;;;;5058606;28;20036;-81
2023/01/31 03:01:09;;;;;;;0.30;0.30;;;;;;;;;;5058509;28;20025;-80
2023/01/31 03:03:36;;;;;;;0.95;0.95;;;;;;;;;;5076427;28;20112;-76
2023/01/31 03:06:22;;;;;;;0.10;0.10;;;;;;;;;;5058241;28;20056;-75
2023/01/31 03:08:51;;;;;;;0.10;0.10;;;;;;;;;;5057924;28;20037;-76
2023/01/31 03:11:16;;;;;;;0.10;0.10;;;;;;;;;;5058317;28;20029;-77
2023/01/31 03:14:01;;;;;;;0.10;0.10;;;;;;;;;;5058251;28;20029;-76
2023/01/31 03:19:40;;;;;;;0.10;0.10;;;;;;;;;;5075780;28;20036;-76
2023/01/31 03:22:16;;;;;;;0.10;0.10;;;;;;;;;;5057647;28;20025;-77
2023/01/31 03:24:46;;;;;;;0.10;0.10;;;;;;;;;;5057663;28;20028;-77
2023/01/31 03:27:12;;;;;;;0.40;0.40;;;;;;;;;;5057891;28;20024;-77
2023/01/31 03:29:39;;;;;;;0.10;0.10;;;;;;;;;;5057699;28;20058;-75
2023/01/31 03:32:11;;;;;;;0.10;0.10;;;;;;;;;;5041535;28;20078;-76
2023/01/31 03:34:37;;;;;;;0.10;0.10;;;;;;;;;;5075786;28;20040;-75
2023/01/31 03:37:11;;;;;;;0.10;0.10;;;;;;;;;;5057583;28;20380;-75
2023/01/31 03:39:53;;;;;;;0.10;0.10;;;;;;;;;;5057196;28;20032;-76
2023/01/31 03:42:30;;;;;;;1.55;1.45;;;;;;;;;;5057437;28;20028;-75
2023/01/31 03:45:08;;;;;;;0.10;0.10;;;;;;;;;;5057665;28;20116;-76
2023/01/31 03:47:40;;;;;;;0.10;0.10;;;;;;;;;;5039819;28;20025;-75
2023/01/31 03:50:14;;;;;;;1.08;0.90;;;;;;;;;;5057418;28;20127;-76
2023/01/31 03:52:42;;;;;;;0.35;0.35;;;;;;;;;;5040706;28;20078;-77
2023/01/31 03:55:17;;;;;;;0.63;0.63;;;;;;;;;;5040933;28;20033;-76
2023/01/31 03:57:44;;;;;;;0.43;0.43;;;;;;;;;;5057206;28;20119;-77
2023/01/31 04:00:12;;;;;;;0.10;0.10;;;;;;;;;;5075235;28;20033;-78
2023/01/31 04:02:40;;;;;;;1.65;1.05;;;;;;;;;;5071508;28;20024;-76
2023/01/31 04:05:11;;;;;;;4.35;1.98;;;;;;;;;;5053275;28;20166;-75
2023/01/31 04:07:40;;;;;;;2.03;1.15;;;;;;;;;;5053240;28;20123;-74
2023/01/31 04:10:16;;;;;;;1.13;1.05;;;;;;;;;;5053417;28;20131;-74
2023/01/31 04:12:42;;;;;;;5.43;2.55;;;;;;;;;;5071320;28;20036;-76
2023/01/31 04:15:07;;;;;;;1.27;1.10;;;;;;;;;;5053373;28;20361;-76
2023/01/31 04:17:33;;;;;;;4.68;1.80;;;;;;;;;;5071133;28;20383;-76
2023/01/31 04:19:58;;;;;;;2.13;1.27;;;;;;;;;;5070521;28;20040;-77
2023/01/31 04:22:24;;;;;;;2.17;1.65;;;;;;;;;;5071159;28;20028;-77
2023/01/31 04:24:49;;;;;;;10.60;1.60;;;;;;;;;;5069517;28;20408;-78
2023/01/31 04:27:15;;;;;;;0.00;0.00;;;;;;;;;;5070812;28;20059;-76
2023/01/31 04:29:40;;;;;;;0.10;0.10;;;;;;;;;;5069687;28;20804;-74
2023/01/31 04:32:06;;;;;;;0.20;0.20;;;;;;;;;;5070885;28;20036;-76
2023/01/31 04:34:31;;;;;;;0.25;0.25;;;;;;;;;;5070745;28;20287;-75
2023/01/31 04:36:56;;;;;;;1.23;1.13;;;;;;;;;;5070638;28;20116;-76
2023/01/31 04:39:22;;;;;;;2.65;1.00;;;;;;;;;;5070904;28;20032;-77
2023/01/31 04:41:47;;;;;;;2.92;2.50;;;;;;;;;;5070619;28;20024;-76
2023/01/31 04:44:13;;;;;;;1.48;1.38;;;;;;;;;;5070602;28;20051;-76
2023/01/31 04:46:38;;;;;;;1.90;1.10;;;;;;;;;;5070669;28;20371;-76
2023/01/31 04:49:04;;;;;;;0.75;0.75;;;;;;;;;;5070409;28;20058;-76
2023/01/31 04:51:29;;;;;;;6.78;3.33;;;;;;;;;;5070170;28;20058;-81
2023/01/31 04:53:54;;;;;;;3.55;1.40;;;;;;;;;;5064616;28;20036;-82
2023/01/31 04:56:21;;;;;;;3.80;2.58;;;;;;;;;;5061427;28;20033;-77
2023/01/31 04:58:47;;;;;;;11.50;2.08;;;;;;;;;;5069071;28;20051;-75
2023/01/31 05:01:12;;;;;;;0.00;0.00;;;;;;;;;;5069745;28;20035;-78
2023/01/31 05:03:38;;;;;;;0.08;0.08;;;;;;;;;;5069909;28;20032;-78
2023/01/31 05:06:03;;;;;;;0.10;0.10;;;;;;;;;;5069692;28;20107;-77
2023/01/31 05:08:29;;;;;;;0.10;0.10;;;;;;;;;;5070618;28;20033;-77
2023/01/31 05:11:01;;;;;;;0.10;0.10;;;;;;;;;;5070224;28;20037;-78
2023/01/31 05:13:28;;;;;;;0.15;0.15;;;;;;;;;;5052304;28;20499;-83
2023/01/31 05:15:54;;;;;;;1.65;0.73;;;;;;;;;;5049598;28;20040;-79
2023/01/31 05:18:19;;;;;;;2.13;1.88;;;;;;;;;;5069598;28;20425;-78
2023/01/31 05:20:46;;;;;;;0.10;0.10;;;;;;;;;;5069871;28;20024;-78
2023/01/31 05:23:12;;;;;;;0.00;0.00;;;;;;;;;;5052162;28;20078;-78
2023/01/31 05:25:37;;;;;;;0.00;0.00;;;;;;;;;;5069670;28;20072;-78
2023/01/31 05:28:03;;;;;;;0.10;0.10;;;;;;;;;;5069701;28;20036;-78
2023/01/31 05:30:29;;;;;;;0.10;0.10;;;;;;;;;;5069081;28;20036;-78
2023/01/31 05:32:54;;;;;;;0.08;0.08;;;;;;;;;;5051697;28;20085;-77
2023/01/31 05:35:20;;;;;;;0.05;0.05;;;;;;;;;;5069483;28;20103;-77
2023/01/31 05:37:45;;;;;;;1.20;1.20;;;;;;;;;;5051404;28;20075;-76
2023/01/31 05:40:15;;;;;;;0.00;0.00;;;;;;;;;;5069698;28;20024;-75
2023/01/31 05:42:40;;;;;;;0.20;0.20;;;;;;;;;;5069805;28;20029;-76
2023/01/31 05:45:06;;;;;;;0.22;0.22;;;;;;;;;;5068182;28;20050;-76
2023/01/31 05:47:32;;;;;;;0.30;0.30;;;;;;;;;;5069084;28;20035;-77
2023/01/31 05:49:57;;;;;;;0.10;0.10;;;;;;;;;;5051459;28;20365;-76
2023/01/31 05:52:23;;;;;;;0.00;0.00;;;;;;;;;;5069320;28;20025;-76
2023/01/31 05:54:48;;;;;;;0.10;0.10;;;;;;;;;;5069358;28;20024;-77
2023/01/31 05:57:14;;;;;;;0.30;0.30;;;;;;;;;;5068582;28;20029;-76
2023/01/31 05:59:40;;;;;;;0.10;0.10;;;;;;;;;;5069415;28;20464;-74
2023/01/31 06:02:05;;;;;;;1.33;1.00;;;;;;;;;;5067582;28;20054;-77
2023/01/31 06:04:31;;;;;;;0.10;0.10;;;;;;;;;;5067317;28;20017;-76
2023/01/31 06:06:56;;;;;;;0.10;0.10;;;;;;;;;;5069060;28;20492;-76
2023/01/31 06:09:22;;;;;;;0.95;0.88;;;;;;;;;;5068870;28;20036;-77
2023/01/31 06:11:47;;;;;;;0.00;0.00;;;;;;;;;;5065967;28;20056;-77
2023/01/31 06:14:12;;;;;;;0.10;0.10;;;;;;;;;;5069208;28;20029;-75
2023/01/31 06:16:38;;;;;;;0.00;0.00;;;;;;;;;;5054406;28;20058;-76
2023/01/31 06:19:03;;;;;;;0.45;0.45;;;;;;;;;;5060128;28;20032;-77
2023/01/31 06:21:29;;;;;;;0.00;0.00;;;;;;;;;;5071209;28;20452;-76
2023/01/31 06:23:54;;;;;;;0.00;0.00;;;;;;;;;;5067471;28;20133;-76
2023/01/31 06:26:20;;;;;;;0.00;0.00;;;;;;;;;;5062208;28;20041;-77
2023/01/31 06:28:45;;;;;;;0.10;0.10;;;;;;;;;;5071717;28;20064;-76
2023/01/31 06:31:11;;;;;;;0.10;0.10;;;;;;;;;;5052052;28;20111;-77
2023/01/31 06:33:36;;;;;;;0.10;0.10;;;;;;;;;;5055603;28;20037;-77
2023/01/31 06:36:02;;;;;;;0.77;0.77;;;;;;;;;;5062930;28;20028;-76
2023/01/31 06:38:27;;;;;;;0.00;0.00;;;;;;;;;;5072786;28;20507;-78
2023/01/31 06:40:53;;;;;;;0.70;0.70;;;;;;;;;;5070389;28;20017;-75
2023/01/31 06:43:18;;;;;;;0.10;0.10;;;;;;;;;;5070513;28;20056;-74
2023/01/31 06:45:44;;;;;;;0.30;0.30;;;;;;;;;;5069248;28;20032;-75
2023/01/31 06:48:09;;;;;;;0.10;0.10;;;;;;;;;;5043157;28;20033;-75
2023/01/31 06:50:35;;;;;;;0.00;0.00;;;;;;;;;;5059414;28;20043;-77
2023/01/31 06:53:00;;;;;;;0.10;0.10;;;;;;;;;;5044542;28;20024;-75
2023/01/31 06:55:26;;;;;;;0.00;0.00;;;;;;;;;;5043331;28;20028;-77
2023/01/31 06:57:51;;;;;;;0.10;0.10;;;;;;;;;;5052073;28;20047;-77
2023/01/31 07:00:17;;;;;;;0.10;0.10;;;;;;;;;;5071324;28;20075;-80
2023/01/31 07:02:43;;;;;;;0.10;0.10;;;;;;;;;;5073080;28;20039;-77
2023/01/31 07:05:08;;;;;;;0.70;0.70;;;;;;;;;;5072308;28;20029;-78
2023/01/31 07:07:34;;;;;;;0.10;0.10;;;;;;;;;;5069690;28;20032;-72
2023/01/31 07:09:59;;;;;;;0.00;0.00;;;;;;;;;;5070221;28;21427;-75
2023/01/31 07:12:25;;;;;;;0.10;0.10;;;;;;;;;;5053485;28;20059;-73
2023/01/31 07:14:50;;;;;;;0.65;0.65;;;;;;;;;;5072510;28;20019;-74
2023/01/31 07:17:16;;;;;;;0.10;0.10;;;;;;;;;;5071088;28;20115;-73
2023/01/31 07:19:42;;;;;;;0.10;0.10;;;;;;;;;;5065699;28;20032;-75
2023/01/31 07:22:07;;;;;;;0.85;0.85;;;;;;;;;;5052515;28;20045;-74
2023/01/31 07:24:32;;;;;;;0.85;0.85;;;;;;;;;;5048271;28;20019;-74
2023/01/31 07:26:59;;;;;;;0.10;0.10;;;;;;;;;;5047005;28;20124;-74
2023/01/31 07:29:24;;;;;;;1.52;1.45;;;;;;;;;;5058729;28;20496;-73
2023/01/31 07:31:50;;;;;;;1.70;1.60;;;;;;;;;;5055464;28;20108;-76
2023/01/31 07:34:15;;;;;;;0.10;0.10;;;;;;;;;;5063922;28;20029;-75
2023/01/31 07:36:41;;;;;;;2.92;1.05;;;;;;;;;;5070129;28;20025;-72
2023/01/31 07:39:06;;;;;;;8.88;7.57;;;;;;;;;;5038651;28;20029;-75
2023/01/31 07:41:31;;;;;;;0.30;0.30;;;;;;;;;;5046553;28;20541;-72
2023/01/31 07:43:57;;;;;;;0.20;0.20;;;;;;;;;;5070975;28;20033;-73
2023/01/31 07:46:22;;;;;;;0.40;0.40;;;;;;;;;;5070553;28;20075;-72
2023/01/31 07:48:48;;;;;;;0.10;0.10;;;;;;;;;;5069316;28;20024;-74
2023/01/31 07:51:13;;;;;;;0.25;0.25;;;;;;;;;;5067005;28;20472;-73
2023/01/31 07:53:41;;;;;;;0.15;0.15;;;;;;;;;;5068933;28;20017;-72
2023/01/31 07:56:16;;;;;;;0.82;0.82;;;;;;;;;;5069163;28;20029;-73
2023/01/31 07:58:43;;;;;;;0.20;0.20;;;;;;;;;;5064491;28;20457;-73
2023/01/31 08:03:56;;;;;;;0.10;0.10;;;;;;;;;;5069071;28;20111;-74
2023/01/31 08:06:22;;;;;;;0.28;0.28;;;;;;;;;;5070731;28;20453;-74
2023/01/31 08:08:47;;;;;;;0.22;0.22;;;;;;;;;;5069483;28;20104;-74
2023/01/31 08:11:13;;;;;;;0.25;0.25;;;;;;;;;;5069607;28;20017;-74
2023/01/31 08:13:38;;;;;;;0.55;0.55;;;;;;;;;;5070457;28;20032;-74
2023/01/31 08:16:05;;;;;;;0.73;0.73;;;;;;;;;;5070005;28;20031;-75
2023/01/31 08:18:30;;;;;;;1.13;1.05;;;;;;;;;;5070466;28;20029;-74
2023/01/31 08:20:56;;;;;;;1.23;1.15;;;;;;;;;;5070193;28;20119;-73
2023/01/31 08:23:21;;;;;;;0.32;0.32;;;;;;;;;;5070459;28;20418;-74
2023/01/31 08:25:47;;;;;;;1.00;1.00;;;;;;;;;;5070051;28;20063;-75
2023/01/31 08:28:12;;;;;;;0.15;0.15;;;;;;;;;;5070307;28;20029;-75
2023/01/31 08:30:38;;;;;;;0.10;0.10;;;;;;;;;;5069955;28;20495;-74
2023/01/31 08:33:04;;;;;;;1.10;1.10;;;;;;;;;;5069371;28;20017;-73
2023/01/31 08:35:29;;;;;;;0.40;0.40;;;;;;;;;;5068584;28;20032;-74
2023/01/31 08:37:54;;;;;;;0.20;0.20;;;;;;;;;;5067917;28;20023;-73
2023/01/31 08:40:20;;;;;;;0.10;0.10;;;;;;;;;;5068102;28;20059;-74
2023/01/31 08:42:55;;;;;;;0.20;0.20;;;;;;;;;;5068425;28;20032;-74
2023/01/31 08:45:20;;;;;;;0.10;0.10;;;;;;;;;;5068446;28;20141;-75
2023/01/31 08:47:46;;;;;;;0.50;0.47;;;;;;;;;;5068123;28;20428;-74
2023/01/31 08:50:11;;;;;;;0.73;0.68;;;;;;;;;;5069488;28;20090;-73
2023/01/31 08:52:38;;;;;;;0.45;0.45;;;;;;;;;;5070175;28;20039;-74
2023/01/31 08:55:05;;;;;;;0.10;0.10;;;;;;;;;;5070268;28;20028;-74
2023/01/31 08:57:30;;;;;;;0.30;0.30;;;;;;;;;;5069972;28;20021;-74
2023/01/31 08:59:55;;;;;;;0.10;0.10;;;;;;;;;;5070177;28;20024;-74
2023/01/31 09:02:21;;;;;;;0.22;0.22;;;;;;;;;;5069174;28;20446;-72
2023/01/31 09:04:48;;;;;;;2.25;1.83;;;;;;;;;;5069610;28;20068;-72
2023/01/31 09:07:13;;;;;;;0.10;0.10;;;;;;;;;;5070229;28;20020;-74
2023/01/31 09:09:39;;;;;;;0.10;0.10;;;;;;;;;;5069347;28;20039;-72
2023/01/31 09:12:04;;;;;;;0.10;0.10;;;;;;;;;;5069588;28;20025;-75
2023/01/31 09:14:30;;;;;;;0.10;0.10;;;;;;;;;;5069227;28;20032;-74
2023/01/31 09:16:55;;;;;;;0.52;0.52;;;;;;;;;;5069091;28;20063;-74
2023/01/31 09:19:22;;;;;;;0.10;0.10;;;;;;;;;;5069705;28;20119;-75
2023/01/31 09:21:47;;;;;;;0.10;0.10;;;;;;;;;;5069270;28;20025;-75
2023/01/31 09:24:13;;;;;;;0.10;0.10;;;;;;;;;;5069326;28;20119;-76
2023/01/31 09:26:38;;;;;;;0.10;0.10;;;;;;;;;;5068952;28;20045;-74
2023/01/31 09:29:04;;;;;;;0.10;0.10;;;;;;;;;;5069472;28;20392;-75
2023/01/31 09:31:30;;;;;;;0.10;0.10;;;;;;;;;;5069415;28;20375;-75
2023/01/31 09:33:55;;;;;;;0.73;0.73;;;;;;;;;;5068928;28;20032;-75
2023/01/31 09:36:22;;;;;;;0.10;0.10;;;;;;;;;;5069298;28;20029;-75
2023/01/31 09:38:52;;;;;;;0.10;0.10;;;;;;;;;;5069340;28;20243;-75
2023/01/31 09:41:27;;;;;;;0.17;0.17;;;;;;;;;;5069336;28;20037;-75
2023/01/31 09:43:56;;;;;;;0.10;0.10;;;;;;;;;;5068560;28;20028;-75
2023/01/31 09:46:23;;;;;;;0.10;0.10;;;;;;;;;;5068945;28;20020;-75
2023/01/31 09:48:51;;;;;;;0.10;0.10;;;;;;;;;;5050805;28;20472;-76
2023/01/31 09:51:17;;;;;;;0.17;0.17;;;;;;;;;;5069291;28;20054;-76
2023/01/31 09:53:42;;;;;;;0.10;0.10;;;;;;;;;;5068698;28;20036;-75
2023/01/31 09:56:08;;;;;;;3.30;1.95;;;;;;;;;;5068863;28;20074;-75
2023/01/31 09:58:52;;;;;;;0.47;0.47;;;;;;;;;;5068846;28;20032;-76
2023/01/31 10:01:25;;;;;;;0.10;0.10;;;;;;;;;;5069365;28;20082;-75
2023/01/31 10:03:50;;;;;;;0.10;0.10;;;;;;;;;;5068562;28;20033;-76
2023/01/31 10:06:24;;;;;;;0.10;0.10;;;;;;;;;;5068678;28;20035;-75
2023/01/31 10:08:58;;;;;;;0.20;0.20;;;;;;;;;;5068334;28;20032;-76
2023/01/31 10:11:43;;;;;;;9.63;7.97;;;;;;;;;;5068791;28;20032;-76
2023/01/31 10:14:15;;;;;;;0.10;0.10;;;;;;;;;;5067704;28;20074;-74
2023/01/31 10:16:49;;;;;;;0.10;0.10;;;;;;;;;;5068726;28;20142;-77
2023/01/31 10:19:17;;;;;;;0.10;0.10;;;;;;;;;;5068551;28;20823;-77
2023/01/31 10:21:46;;;;;;;0.10;0.10;;;;;;;;;;5068125;28;20095;-76
2023/01/31 10:24:22;;;;;;;0.13;0.13;;;;;;;;;;5050710;28;20036;-79
2023/01/31 10:26:49;;;;;;;0.43;0.43;;;;;;;;;;5068904;28;20434;-78
2023/01/31 10:29:17;;;;;;;0.20;0.20;;;;;;;;;;5068674;28;20033;-77
2023/01/31 10:31:51;;;;;;;0.10;0.10;;;;;;;;;;5068621;28;20488;-79
2023/01/31 10:34:25;;;;;;;1.08;0.77;;;;;;;;;;5068438;28;20017;-78
2023/01/31 10:37:09;;;;;;;0.75;0.75;;;;;;;;;;5068184;28;20024;-79
2023/01/31 10:39:43;;;;;;;0.17;0.17;;;;;;;;;;5048547;28;20032;-78
2023/01/31 10:42:24;;;;;;;0.13;0.13;;;;;;;;;;5063472;28;20426;-76
2023/01/31 10:44:54;;;;;;;0.85;0.65;;;;;;;;;;5064601;28;20144;-79
2023/01/31 10:47:21;;;;;;;1.85;1.20;;;;;;;;;;5047652;28;20541;-76
2023/01/31 10:49:47;;;;;;;1.00;0.68;;;;;;;;;;5061133;28;20082;-74
2023/01/31 10:52:32;;;;;;;0.10;0.10;;;;;;;;;;5050529;28;20035;-73
2023/01/31 10:55:16;;;;;;;4.63;1.50;;;;;;;;;;5067741;28;20036;-73
2023/01/31 10:57:41;;;;;;;0.10;0.10;;;;;;;;;;5070878;28;20024;-73
2023/01/31 11:00:12;;;;;;;0.10;0.10;;;;;;;;;;5062171;28;20028;-74
2023/01/31 11:02:38;;;;;;;0.57;0.40;;;;;;;;;;5039041;28;20025;-73
2023/01/31 11:05:03;;;;;;;0.13;0.13;;;;;;;;;;5059569;28;20412;-74
2023/01/31 11:07:30;;;;;;;0.20;0.20;;;;;;;;;;5061408;28;20488;-73
2023/01/31 11:09:57;;;;;;;0.20;0.20;;;;;;;;;;5029829;28;20040;-72
2023/01/31 11:12:40;;;;;;;0.10;0.10;;;;;;;;;;5063020;28;20078;-73
2023/01/31 11:15:07;;;;;;;5.97;2.47;;;;;;;;;;5048809;28;20037;-74
2023/01/31 11:17:34;;;;;;;0.10;0.10;;;;;;;;;;5067856;28;20387;-73
2023/01/31 11:20:00;;;;;;;0.10;0.10;;;;;;;;;;5062172;28;20818;-74
2023/01/31 11:22:25;;;;;;;0.22;0.22;;;;;;;;;;5062849;28;20052;-73
2023/01/31 11:24:51;;;;;;;0.10;0.10;;;;;;;;;;5049801;28;20059;-73
2023/01/31 11:27:30;;;;;;;0.10;0.10;;;;;;;;;;5047959;28;20025;-73
2023/01/31 11:29:57;;;;;;;3.72;2.38;;;;;;;;;;5052620;28;20024;-73
2023/01/31 11:32:31;;;;;;;2.92;1.75;;;;;;;;;;5049757;28;20037;-74
2023/01/31 11:35:04;;;;;;;0.20;0.20;;;;;;;;;;5062789;28;20541;-74
2023/01/31 11:37:30;;;;;;;0.60;0.40;;;;;;;;;;5066856;28;20450;-73
2023/01/31 11:39:55;;;;;;;0.35;0.35;;;;;;;;;;5068417;28;20115;-73
2023/01/31 11:42:21;;;;;;;0.35;0.35;;;;;;;;;;5071118;28;20119;-73
2023/01/31 11:44:53;;;;;;;0.32;0.30;;;;;;;;;;5071165;28;20012;-74
2023/01/31 11:47:20;;;;;;;0.75;0.68;;;;;;;;;;5070893;28;20115;-74
2023/01/31 11:49:47;;;;;;;1.73;0.90;;;;;;;;;;5069713;28;20045;-73
2023/01/31 11:52:17;;;;;;;1.92;1.10;;;;;;;;;;5070994;28;20047;-73
2023/01/31 11:54:45;;;;;;;2.58;1.48;;;;;;;;;;5070977;28;20024;-74
2023/01/31 11:57:21;;;;;;;2.47;1.23;;;;;;;;;;5071110;28;20136;-73
2023/01/31 11:59:48;;;;;;;4.20;2.00;;;;;;;;;;5070757;28;20029;-73
2023/01/31 12:02:23;;;;;;;0.55;0.50;;;;;;;;;;5070974;28;20086;-73
2023/01/31 12:04:49;;;;;;;2.40;1.15;;;;;;;;;;5070703;28;20606;-73
2023/01/31 12:07:22;;;;;;;0.65;0.65;;;;;;;;;;5070499;28;20027;-74
2023/01/31 12:09:47;;;;;;;0.10;0.10;;;;;;;;;;5068377;28;20033;-74
2023/01/31 12:12:39;;;;;;;10.13;2.55;;;;;;;;;;5050784;28;20043;-74
2023/01/31 12:15:12;;;;;;;8.02;1.98;;;;;;;;;;5047486;28;20128;-73
2023/01/31 12:17:42;;;;;;;6.32;2.63;;;;;;;;;;5069319;28;20036;-74
2023/01/31 12:20:10;;;;;;;0.10;0.10;;;;;;;;;;5070551;28;20066;-74
2023/01/31 12:22:40;;;;;;;1.52;0.85;;;;;;;;;;5070376;28;20017;-75
2023/01/31 12:25:27;;;;;;;1.30;0.88;;;;;;;;;;5069568;28;20052;-74
2023/01/31 12:28:07;;;;;;;0.43;0.43;;;;;;;;;;5068727;28;20029;-73
2023/01/31 12:30:50;;;;;;;4.47;1.55;;;;;;;;;;5067987;28;20163;-75
2023/01/31 12:33:26;;;;;;;2.35;1.35;;;;;;;;;;5051210;28;20054;-73
2023/01/31 12:35:51;;;;;;;2.03;0.80;;;;;;;;;;5061733;28;20531;-74
2023/01/31 12:38:27;;;;;;;1.92;1.25;;;;;;;;;;5068210;28;20032;-75
2023/01/31 12:41:17;;;;;;;0.55;0.40;;;;;;;;;;5047857;28;20079;-74
2023/01/31 12:43:43;;;;;;;0.80;0.80;;;;;;;;;;5047786;28;20036;-74
2023/01/31 12:46:21;;;;;;;0.20;0.17;;;;;;;;;;5047723;28;20021;-74
2023/01/31 12:48:59;;;;;;;3.53;1.40;;;;;;;;;;5058070;28;20032;-74
2023/01/31 12:51:27;;;;;;;3.40;1.38;;;;;;;;;;5061820;28;20418;-74
2023/01/31 12:53:59;;;;;;;3.78;1.48;;;;;;;;;;5050389;28;20108;-74
2023/01/31 12:56:43;;;;;;;4.38;1.42;;;;;;;;;;5048104;28;20453;-73
2023/01/31 12:59:08;;;;;;;1.98;1.13;;;;;;;;;;5060183;28;20120;-72
2023/01/31 13:01:38;;;;;;;0.32;0.32;;;;;;;;;;5057471;28;20107;-71
2023/01/31 13:04:22;;;;;;;0.10;0.10;;;;;;;;;;5058629;28;20028;-71
2023/01/31 13:06:57;;;;;;;1.00;0.70;;;;;;;;;;5044967;28;20044;-72
2023/01/31 13:09:26;;;;;;;6.43;0.43;;;;;;;;;;5046234;28;20120;-72
2023/01/31 13:11:56;;;;;;;0.60;0.50;;;;;;;;;;5047189;28;20044;-73
2023/01/31 13:14:25;;;;;;;2.03;1.02;;;;;;;;;;5060789;28;20029;-72
2023/01/31 13:16:53;;;;;;;1.77;1.00;;;;;;;;;;5067017;28;20024;-72
2023/01/31 13:19:24;;;;;;;2.90;1.55;;;;;;;;;;5048954;28;20032;-73
2023/01/31 13:21:52;;;;;;;2.25;1.33;;;;;;;;;;5067093;28;20488;-71
2023/01/31 13:24:20;;;;;;;0.80;0.50;;;;;;;;;;5066218;28;20021;-73
2023/01/31 13:26:51;;;;;;;1.02;0.93;;;;;;;;;;5067020;28;20492;-72
2023/01/31 13:29:19;;;;;;;1.83;1.23;;;;;;;;;;5066165;28;20041;-73
2023/01/31 13:31:47;;;;;;;5.38;1.65;;;;;;;;;;5066632;28;20103;-72
2023/01/31 13:34:28;;;;;;;0.98;0.70;;;;;;;;;;5048751;28;20032;-72
2023/01/31 13:37:01;;;;;;;0.90;0.52;;;;;;;;;;5067312;28;20076;-72
2023/01/31 13:39:31;;;;;;;0.30;0.30;;;;;;;;;;5067106;28;20476;-72
2023/01/31 13:41:57;;;;;;;1.85;1.75;;;;;;;;;;5066725;28;20107;-72
2023/01/31 13:44:23;;;;;;;0.88;0.25;;;;;;;;;;5066555;28;20116;-73
2023/01/31 13:46:50;;;;;;;6.38;1.25;;;;;;;;;;5066710;28;20110;-74
2023/01/31 13:49:31;;;;;;;1.50;0.77;;;;;;;;;;5067065;28;20076;-72
2023/01/31 13:52:18;;;;;;;0.38;0.38;;;;;;;;;;5066286;28;20775;-71
2023/01/31 13:54:54;;;;;;;1.60;1.52;;;;;;;;;;5067100;28;20090;-72
2023/01/31 13:57:25;;;;;;;2.40;1.27;;;;;;;;;;5066661;28;20024;-72
2023/01/31 13:59:55;;;;;;;3.75;1.10;;;;;;;;;;5066355;28;20037;-73
2023/01/31 14:02:20;;;;;;;2.00;0.57;;;;;;;;;;5066215;28;20037;-73
2023/01/31 14:04:46;;;;;;;3.15;1.17;;;;;;;;;;5066302;28;20047;-72
2023/01/31 14:07:13;;;;;;;1.88;0.93;;;;;;;;;;5066808;28;20016;-73
2023/01/31 14:09:38;;;;;;;5.72;1.92;;;;;;;;;;5068581;28;20041;-73
2023/01/31 14:12:16;;;;;;;1.35;0.73;;;;;;;;;;5068395;28;20403;-71
2023/01/31 14:14:44;;;;;;;4.25;1.70;;;;;;;;;;5068925;28;20032;-73
2023/01/31 14:17:11;;;;;;;3.20;1.40;;;;;;;;;;5069262;28;20036;-72
2023/01/31 14:19:43;;;;;;;1.48;1.15;;;;;;;;;;5048278;28;20032;-72
2023/01/31 14:22:20;;;;;;;2.65;1.00;;;;;;;;;;5066176;28;20043;-72
2023/01/31 14:24:46;;;;;;;1.98;1.42;;;;;;;;;;5063693;28;20040;-72
2023/01/31 14:27:20;;;;;;;4.32;1.88;;;;;;;;;;5066521;28;20036;-73
2023/01/31 14:29:47;;;;;;;3.28;1.70;;;;;;;;;;5063726;28;20044;-72
2023/01/31 14:32:15;;;;;;;3.90;1.70;;;;;;;;;;5068288;28;20035;-72
2023/01/31 14:34:46;;;;;;;2.10;1.52;;;;;;;;;;5069544;28;20020;-72
2023/01/31 14:37:20;;;;;;;1.90;1.05;;;;;;;;;;5051583;28;20360;-72
2023/01/31 14:39:49;;;;;;;1.98;1.13;;;;;;;;;;5063430;28;20040;-72
2023/01/31 14:42:29;;;;;;;0.85;0.70;;;;;;;;;;5070366;28;20097;-72
2023/01/31 14:45:13;;;;;;;1.27;1.05;;;;;;;;;;5048555;28;20091;-72
2023/01/31 14:47:53;;;;;;;3.17;1.73;;;;;;;;;;5050194;28;20036;-72
2023/01/31 14:50:18;;;;;;;;;;;;;;;;;;5051096;28;20098;-71
2023/01/31 14:53:02;;;;;;;1.83;1.23;;;;;;;;;;5050208;28;19908;-72
2023/01/31 14:55:28;;;;;;;3.92;1.10;;;;;;;;;;5052840;28;20029;-71
2023/01/31 14:57:57;;;;;;;15.50;1.50;;;;;;;;;;5050748;28;20100;-72
2023/01/31 15:00:25;;;;;;;2.85;0.88;;;;;;;;;;5050627;28;20111;-72